NEOK1: Neosho R at Neosho Rapids, KS

                                SHEF ID:       NEOK1     NEOSHO R AT NEOSHO RAPIDS, KS
STATION TYPE:

STAGE RIV-FLOW BAT-LOAD
ft cfs volt
Ccp-Rev Ccp-Rev Ccp-Rev
(America/Chicago)
04/24 00:00 4.55 1926 12.51
04/24 01:00 4.57 1938 12.48
04/24 02:00 4.60 1956 12.44
04/24 03:00 4.61 1962 12.41
04/24 04:00 4.65 1986 12.37
04/24 05:00 4.66 1992 12.36
04/24 06:00 4.68 2004 12.34
04/24 07:00 4.69 2010 12.34
04/24 08:00 4.69 2010 12.42
04/24 09:00 4.72 2028 13.19
04/24 10:00 4.71 2022 13.23
04/24 11:00 4.70 2016 13.17
04/24 12:00 4.68 2004 13.16
04/24 13:00 4.69 2010 13.15
04/24 14:00 4.67 1998 13.06
04/24 15:00 4.70 2016 13.01
04/24 16:00 4.72 2028 12.98
04/24 17:00 4.79 2070 12.95
04/24 18:00 4.94 2162 12.92
04/24 19:00 5.19 2318 12.86
04/24 20:00 5.54 2540 12.70
04/24 21:00 5.96 2814 12.63
04/24 22:00 6.40 3109 12.59
04/24 23:00 6.84 3411 12.57
Data processed at Sat 25Apr2026 04:36 GMT

NOTICE: If you are parsing this page

Please convert to using our Data API. Starting early 2026 we will be migrating to: https://water.usace.army.mil with modern pages rendered in JavaScript. When this migration completes you will no longer be able to scrape this page! CWMSDataAPI (CDA)

Timeseries IDs (TSIDs)

TSIDs used from left to right in the data table
NEOR.Stage.Inst.1Hour.0.Ccp-Rev
NEOR.Flow.Inst.1Hour.0.Ccp-Rev
NEOR.Volt-Battery Load.Inst.1Hour.0.Ccp-Rev

                            

All information presented herein is the property of the government of the United States of America and may be revised or deleted at any time without prior notice. Dissemination of this information without the expressed written consent of the Public Affairs Office, Tulsa District U.S. Army Corps of Engineers is strictly prohibited. These data are gathered electronically and, as presented, have NOT undergone any form of quality control. These data are NOT guaranteed to be valid or correct.